Time;durP1;ratioP1;P1;durP2;ratioP2;P2;SDS_P1;SDS_P2;PMS_P1;PMS_P2;Temp;Humidity;BMP_temperature;BMP_pressure;BME280_temperature;BME280_humidity;BME280_pressure;Samples;Min_cycle;Max_cycle;Signal;HPM_P1;HPM_P2
2022/03/06 05:01:31;;;;;;;14.57;8.18;;;-0.10;99.90;;;;;;5469946;23;20462;-84
2022/03/06 05:03:57;;;;;;;17.00;9.05;;;-0.10;99.90;;;;;;4920892;29;20048;-83
2022/03/06 05:06:23;;;;;;;16.58;7.82;;;-0.10;99.90;;;;;;4938314;29;20089;-83
2022/03/06 05:08:48;;;;;;;13.93;8.35;;;-0.10;99.90;;;;;;4905355;29;20126;-84
2022/03/06 05:11:15;;;;;;;13.32;8.23;;;-0.10;99.90;;;;;;4920896;29;20071;-85
2022/03/06 05:13:40;;;;;;;14.30;7.75;;;-0.10;99.90;;;;;;4921489;29;20069;-86
2022/03/06 05:16:06;;;;;;;19.77;8.20;;;-0.20;99.90;;;;;;4921180;29;20537;-84
2022/03/06 05:18:32;;;;;;;16.70;8.32;;;-0.20;99.90;;;;;;4936867;29;20044;-85
2022/03/06 05:20:57;;;;;;;15.18;8.38;;;-0.20;99.90;;;;;;4938396;29;20051;-86
2022/03/06 05:23:23;;;;;;;15.63;8.20;;;-0.20;99.90;;;;;;4921075;29;20052;-85
2022/03/06 05:25:49;;;;;;;14.60;7.60;;;-0.20;99.90;;;;;;4938422;29;20044;-85
2022/03/06 05:28:15;;;;;;;13.38;7.80;;;-0.20;99.90;;;;;;4938171;29;20035;-82
2022/03/06 05:30:41;;;;;;;16.02;7.95;;;-0.30;99.90;;;;;;4904935;29;20047;-84
2022/03/06 05:33:06;;;;;;;14.18;7.72;;;-0.30;99.90;;;;;;4920726;29;20052;-84
2022/03/06 05:35:32;;;;;;;12.10;7.18;;;-0.30;99.90;;;;;;4921339;29;20127;-85
2022/03/06 05:37:58;;;;;;;14.35;7.90;;;-0.30;99.90;;;;;;4921106;29;20528;-85
2022/03/06 05:40:25;;;;;;;16.20;7.68;;;-0.30;99.90;;;;;;4920130;29;20079;-86
2022/03/06 05:42:50;;;;;;;12.60;7.25;;;-0.30;99.90;;;;;;4920602;29;20047;-86
2022/03/06 05:45:16;;;;;;;14.07;7.75;;;-0.30;99.90;;;;;;4920807;29;20502;-85
2022/03/06 05:47:43;;;;;;;12.70;7.47;;;-0.30;99.90;;;;;;4920551;29;20051;-85
2022/03/06 05:50:10;;;;;;;17.30;8.80;;;-0.40;99.90;;;;;;4905572;29;20393;-86
2022/03/06 05:52:35;;;;;;;13.30;7.47;;;-0.40;99.90;;;;;;4941358;29;20035;-85
2022/03/06 05:55:03;;;;;;;17.23;7.50;;;-0.40;99.90;;;;;;4941828;29;20069;-86
2022/03/06 05:57:28;;;;;;;14.05;7.93;;;-0.30;99.90;;;;;;4908745;29;20048;-86
2022/03/06 05:59:54;;;;;;;14.73;7.10;;;-0.40;99.90;;;;;;4924199;29;20043;-84
2022/03/06 06:02:20;;;;;;;13.18;7.07;;;-0.40;99.90;;;;;;4941064;29;20350;-84
2022/03/06 06:04:45;;;;;;;15.23;8.20;;;-0.40;99.90;;;;;;4923477;29;20050;-84
2022/03/06 06:07:11;;;;;;;13.63;7.57;;;-0.40;99.90;;;;;;4941535;29;20032;-84
2022/03/06 06:09:37;;;;;;;12.43;6.50;;;-0.40;99.90;;;;;;4924304;29;20047;-85
2022/03/06 06:12:03;;;;;;;14.15;7.43;;;-0.40;99.90;;;;;;4908304;29;20055;-85
2022/03/06 06:14:29;;;;;;;13.02;7.45;;;-0.40;99.90;;;;;;4923564;29;20036;-85
2022/03/06 06:16:55;;;;;;;13.02;7.10;;;-0.40;99.90;;;;;;4924164;29;20046;-84
2022/03/06 06:19:20;;;;;;;15.82;6.97;;;-0.40;99.90;;;;;;4940736;29;20044;-85
2022/03/06 06:21:46;;;;;;;15.82;7.28;;;-0.40;99.90;;;;;;4923781;29;20051;-83
2022/03/06 06:24:13;;;;;;;12.63;6.85;;;-0.40;99.90;;;;;;4940595;29;20039;-83
2022/03/06 06:26:39;;;;;;;12.55;8.02;;;-0.40;99.90;;;;;;4939131;29;20040;-85
2022/03/06 06:29:05;;;;;;;13.25;8.02;;;-0.50;99.90;;;;;;4940413;29;20047;-83
2022/03/06 06:31:31;;;;;;;16.10;7.15;;;-0.50;99.90;;;;;;4939682;29;20051;-83
2022/03/06 06:33:57;;;;;;;16.63;6.55;;;-0.50;99.90;;;;;;4922253;29;20122;-84
2022/03/06 06:36:23;;;;;;;12.30;7.05;;;-0.50;99.90;;;;;;4939078;29;20130;-85
2022/03/06 06:38:49;;;;;;;17.67;7.38;;;-0.40;99.90;;;;;;4938763;29;20067;-85
2022/03/06 06:41:14;;;;;;;13.05;6.75;;;-0.50;99.90;;;;;;4938323;29;20078;-84
2022/03/06 06:43:42;;;;;;;11.77;5.97;;;-0.50;99.90;;;;;;4923137;29;20043;-84
2022/03/06 06:46:08;;;;;;;13.32;6.63;;;-0.40;99.90;;;;;;4923307;29;20053;-85
2022/03/06 06:48:34;;;;;;;16.35;6.65;;;-0.40;99.90;;;;;;4906838;29;20047;-82
2022/03/06 06:50:59;;;;;;;12.80;6.88;;;-0.40;99.90;;;;;;4940256;29;20043;-84
2022/03/06 06:53:25;;;;;;;15.52;7.72;;;-0.40;99.90;;;;;;4941154;29;20044;-85
2022/03/06 06:55:51;;;;;;;11.52;6.28;;;-0.30;99.90;;;;;;4923895;29;20043;-84
2022/03/06 06:58:16;;;;;;;14.43;6.85;;;-0.40;99.90;;;;;;4924662;29;20202;-86
2022/03/06 07:00:42;;;;;;;14.95;7.28;;;-0.40;99.90;;;;;;4922560;29;20089;-85
2022/03/06 07:03:09;;;;;;;12.10;7.13;;;-0.30;99.90;;;;;;4922394;29;20124;-84
2022/03/06 07:05:34;;;;;;;13.45;6.70;;;-0.30;99.90;;;;;;4922282;29;20058;-83
2022/03/06 07:08:00;;;;;;;13.38;6.82;;;-0.30;99.90;;;;;;4922376;29;20044;-83
2022/03/06 07:10:26;;;;;;;13.10;6.55;;;-0.20;99.90;;;;;;4921657;29;20039;-83
2022/03/06 07:12:54;;;;;;;13.95;7.25;;;-0.20;99.90;;;;;;4938897;29;20418;-85
2022/03/06 07:15:21;;;;;;;11.90;6.32;;;-0.20;99.90;;;;;;4922189;29;20075;-84
2022/03/06 07:17:48;;;;;;;12.05;6.75;;;-0.10;99.90;;;;;;4939690;29;20124;-85
2022/03/06 07:20:14;;;;;;;13.43;7.25;;;-0.10;99.90;;;;;;4922188;29;20118;-84
2022/03/06 07:22:39;;;;;;;13.93;5.68;;;0.00;99.90;;;;;;4906646;29;20490;-85
2022/03/06 07:25:05;;;;;;;15.13;6.50;;;0.00;99.90;;;;;;4939738;29;20048;-84
2022/03/06 07:27:31;;;;;;;16.02;7.38;;;0.00;99.90;;;;;;4906758;29;20142;-85
2022/03/06 07:29:57;;;;;;;15.68;6.35;;;0.10;99.90;;;;;;4922860;29;20051;-84
2022/03/06 07:32:24;;;;;;;11.38;6.38;;;0.10;99.90;;;;;;4922302;29;20047;-85
2022/03/06 07:34:49;;;;;;;13.95;6.38;;;0.20;99.90;;;;;;4939176;29;20427;-82
2022/03/06 07:37:15;;;;;;;13.55;6.32;;;0.20;99.90;;;;;;4921953;29;20082;-84
2022/03/06 07:39:41;;;;;;;12.60;6.47;;;0.30;99.90;;;;;;4922347;29;20043;-85
2022/03/06 07:42:07;;;;;;;14.65;6.40;;;0.30;99.90;;;;;;4922372;29;20054;-84
2022/03/06 07:44:32;;;;;;;13.93;6.03;;;0.40;99.90;;;;;;4939514;29;20040;-84
2022/03/06 07:46:58;;;;;;;11.68;5.90;;;0.40;99.90;;;;;;4939544;29;20490;-83
2022/03/06 07:49:23;;;;;;;17.45;6.70;;;0.50;99.90;;;;;;4921993;29;20046;-84
2022/03/06 07:51:50;;;;;;;14.70;6.15;;;0.50;99.90;;;;;;4922143;29;20082;-83
2022/03/06 07:54:17;;;;;;;13.02;6.43;;;0.50;99.90;;;;;;4906772;29;20040;-85
2022/03/06 07:56:43;;;;;;;11.23;5.53;;;0.60;99.90;;;;;;4921347;29;20048;-83
2022/03/06 07:59:10;;;;;;;9.52;5.53;;;0.70;99.90;;;;;;4938270;29;20046;-83
2022/03/06 08:01:35;;;;;;;11.80;5.90;;;0.70;99.90;;;;;;4939015;29;20081;-86
2022/03/06 08:04:01;;;;;;;19.40;6.13;;;0.80;99.90;;;;;;4921787;29;20071;-85
2022/03/06 08:06:26;;;;;;;9.07;5.47;;;0.80;99.90;;;;;;4939118;29;20059;-88
2022/03/06 08:08:52;;;;;;;10.40;5.70;;;0.90;99.90;;;;;;4921939;29;20512;-85
2022/03/06 08:11:19;;;;;;;10.65;5.93;;;1.00;99.90;;;;;;4938717;29;20566;-85
2022/03/06 08:13:44;;;;;;;11.10;5.78;;;1.10;99.90;;;;;;4921158;29;20090;-88
2022/03/06 08:16:10;;;;;;;10.07;5.00;;;1.10;99.90;;;;;;4922083;29;20044;-87
2022/03/06 08:18:36;;;;;;;8.25;4.93;;;1.20;99.90;;;;;;4921658;29;20055;-86
2022/03/06 08:21:02;;;;;;;10.32;5.20;;;1.20;99.90;;;;;;4904886;29;20047;-86
2022/03/06 08:23:27;;;;;;;13.10;4.82;;;1.30;99.90;;;;;;4938898;29;20054;-87
2022/03/06 08:25:53;;;;;;;10.25;5.10;;;1.40;99.90;;;;;;4921659;29;20039;-87
2022/03/06 08:28:19;;;;;;;9.32;5.10;;;1.50;99.90;;;;;;4921602;29;20048;-87
2022/03/06 08:30:45;;;;;;;8.55;4.30;;;1.60;99.90;;;;;;4921582;29;20043;-87
2022/03/06 08:33:11;;;;;;;8.95;4.03;;;1.60;99.90;;;;;;4921769;29;20486;-85
2022/03/06 08:35:37;;;;;;;9.57;4.15;;;1.70;99.90;;;;;;4906107;29;20104;-85
2022/03/06 08:38:02;;;;;;;9.65;4.57;;;1.80;99.90;;;;;;4921705;29;20596;-85
2022/03/06 08:40:28;;;;;;;10.18;4.40;;;1.90;99.90;;;;;;4921637;29;20175;-85
2022/03/06 08:42:54;;;;;;;8.35;4.22;;;2.00;99.90;;;;;;4919833;29;20382;-77
2022/03/06 08:45:19;;;;;;;9.18;4.18;;;2.10;99.90;;;;;;4936937;29;20492;-84
2022/03/06 08:47:45;;;;;;;9.13;3.90;;;2.20;99.90;;;;;;4920985;29;20044;-83
2022/03/06 08:50:11;;;;;;;8.93;3.80;;;2.20;99.90;;;;;;4921161;29;20032;-83
2022/03/06 08:52:37;;;;;;;7.70;3.78;;;2.40;99.90;;;;;;4937539;29;20425;-83
2022/03/06 08:55:03;;;;;;;7.07;3.50;;;2.50;99.90;;;;;;4937539;29;20035;-84
2022/03/06 08:57:29;;;;;;;6.80;3.13;;;2.60;99.90;;;;;;4921093;29;20054;-83
2022/03/06 08:59:55;;;;;;;5.43;3.42;;;2.70;99.90;;;;;;4920134;29;20122;-84
2022/03/06 09:02:20;;;;;;;6.50;3.00;;;2.80;99.90;;;;;;4903963;29;20453;-83
2022/03/06 09:04:46;;;;;;;6.85;2.97;;;2.90;99.90;;;;;;4919015;29;20134;-86
2022/03/06 09:07:11;;;;;;;6.53;3.38;;;3.10;99.90;;;;;;4935927;29;20083;-84
2022/03/06 09:09:37;;;;;;;5.35;2.85;;;3.20;99.90;;;;;;4937595;29;20390;-83
2022/03/06 09:12:03;;;;;;;4.72;2.60;;;3.40;99.90;;;;;;4938180;29;20063;-82
2022/03/06 09:14:29;;;;;;;8.20;3.05;;;3.50;99.90;;;;;;4920939;29;20075;-84
2022/03/06 09:16:54;;;;;;;7.20;3.00;;;3.60;99.90;;;;;;4920622;29;20047;-84
2022/03/06 09:19:20;;;;;;;6.25;2.80;;;3.70;99.90;;;;;;4904805;29;20036;-83
2022/03/06 09:21:46;;;;;;;4.65;2.80;;;3.90;99.90;;;;;;4919420;29;20052;-84
2022/03/06 09:24:12;;;;;;;5.45;2.60;;;4.10;99.90;;;;;;4935443;29;20088;-84
2022/03/06 09:26:38;;;;;;;4.68;2.70;;;4.20;99.90;;;;;;4921005;29;20442;-83
2022/03/06 09:29:05;;;;;;;6.03;2.70;;;4.30;99.90;;;;;;4907370;29;20044;-84
2022/03/06 09:31:30;;;;;;;5.18;2.55;;;4.50;99.90;;;;;;4940610;29;20039;-84
2022/03/06 09:33:56;;;;;;;6.55;2.30;;;4.60;99.90;;;;;;4923560;29;20106;-85
2022/03/06 09:36:22;;;;;;;5.70;2.40;;;4.70;99.90;;;;;;4925062;29;20046;-84
2022/03/06 09:38:48;;;;;;;4.05;2.28;;;4.80;99.90;;;;;;4934706;29;20110;-83
2022/03/06 09:41:17;;;;;;;5.10;2.83;;;4.90;99.90;;;;;;4939539;29;20043;-85
2022/03/06 09:43:43;;;;;;;5.28;2.70;;;5.00;99.90;;;;;;4927272;29;20103;-83
2022/03/06 09:46:09;;;;;;;3.58;2.20;;;5.10;99.90;;;;;;4938328;29;20090;-85
2022/03/06 09:48:36;;;;;;;5.78;2.53;;;5.20;99.90;;;;;;4925522;29;20075;-84
2022/03/06 09:51:03;;;;;;;6.50;2.25;;;5.40;99.90;;;;;;4924370;29;20044;-85
2022/03/06 09:53:29;;;;;;;5.13;2.25;;;5.50;99.90;;;;;;4924458;29;20106;-85
2022/03/06 09:55:55;;;;;;;5.47;2.45;;;5.60;99.90;;;;;;4923894;29;20625;-85
2022/03/06 09:58:21;;;;;;;4.65;2.30;;;5.70;99.90;;;;;;4924064;29;20102;-84
2022/03/06 10:00:47;;;;;;;6.25;2.72;;;5.80;99.90;;;;;;4940438;29;20212;-84
2022/03/06 10:03:18;;;;;;;6.53;3.08;;;5.90;99.90;;;;;;4923596;29;20476;-84
2022/03/06 10:05:43;;;;;;;4.25;2.30;;;6.00;99.90;;;;;;4940635;29;20084;-86
2022/03/06 10:08:27;;;;;;;4.68;2.40;;;6.10;99.90;;;;;;4922541;29;20075;-84
2022/03/06 10:10:57;;;;;;;4.13;2.38;;;6.20;99.90;;;;;;4906431;29;20075;-84
2022/03/06 10:13:34;;;;;;;5.20;2.40;;;6.30;99.90;;;;;;4922804;29;20047;-84
2022/03/06 10:16:19;;;;;;;5.15;2.30;;;6.30;99.90;;;;;;4922102;29;20098;-83
2022/03/06 10:18:50;;;;;;;7.32;2.42;;;6.40;99.90;;;;;;4921952;29;20055;-83
2022/03/06 10:21:29;;;;;;;5.63;2.42;;;6.50;99.90;;;;;;4938513;29;20090;-81
2022/03/06 10:23:57;;;;;;;5.13;2.92;;;6.60;99.90;;;;;;4938724;29;20042;-83
2022/03/06 10:26:29;;;;;;;7.55;2.50;;;6.80;99.90;;;;;;4938899;29;20095;-83
2022/03/06 10:28:59;;;;;;;3.38;2.25;;;6.90;99.90;;;;;;4921206;29;20082;-83
2022/03/06 10:31:34;;;;;;;4.20;2.22;;;6.90;99.90;;;;;;4939080;29;20071;-83
2022/03/06 10:34:10;;;;;;;4.50;2.00;;;6.90;99.90;;;;;;4922163;29;20044;-82
2022/03/06 10:36:44;;;;;;;4.32;2.08;;;7.00;99.90;;;;;;4939172;29;20043;-83
2022/03/06 10:39:21;;;;;;;7.00;3.15;;;7.10;99.90;;;;;;4939600;29;20050;-83
2022/03/06 10:41:51;;;;;;;4.68;2.20;;;7.20;99.90;;;;;;4921991;29;20047;-83
2022/03/06 10:44:20;;;;;;;4.57;2.25;;;7.30;99.90;;;;;;4922077;29;20047;-84
2022/03/06 10:47:03;;;;;;;5.47;2.28;;;7.40;99.90;;;;;;4923013;29;20051;-84
2022/03/06 10:49:30;;;;;;;5.40;2.28;;;7.50;99.90;;;;;;4922437;29;20055;-83
2022/03/06 10:51:56;;;;;;;4.85;2.40;;;7.70;99.90;;;;;;4939391;29;20035;-84
2022/03/06 10:54:22;;;;;;;4.53;2.50;;;7.70;99.90;;;;;;4921824;29;20401;-83
2022/03/06 10:56:51;;;;;;;6.10;2.30;;;7.80;99.90;;;;;;4921867;29;20043;-83
2022/03/06 10:59:19;;;;;;;6.35;2.40;;;7.90;99.90;;;;;;4938772;29;20039;-82
2022/03/06 11:01:48;;;;;;;5.13;2.30;;;7.90;99.90;;;;;;4921151;29;20406;-82
2022/03/06 11:04:17;;;;;;;4.68;2.30;;;7.90;99.90;;;;;;4922581;29;20104;-84
2022/03/06 11:06:43;;;;;;;6.35;2.42;;;8.10;99.90;;;;;;4921866;29;20035;-83
2022/03/06 11:09:17;;;;;;;6.05;2.60;;;8.10;99.90;;;;;;4921335;29;20054;-84
2022/03/06 11:11:44;;;;;;;7.65;3.15;;;8.20;99.90;;;;;;4921725;29;20127;-83
2022/03/06 11:14:11;;;;;;;5.22;2.50;;;8.30;99.90;;;;;;4938606;29;20051;-83
2022/03/06 11:16:38;;;;;;;7.05;2.53;;;8.30;99.90;;;;;;4938818;29;20079;-85
2022/03/06 11:19:06;;;;;;;4.93;2.47;;;8.50;99.90;;;;;;4939285;29;20047;-85
2022/03/06 11:21:33;;;;;;;6.00;2.80;;;8.60;99.90;;;;;;4921718;29;20061;-85
2022/03/06 11:24:05;;;;;;;6.55;3.17;;;8.80;99.90;;;;;;4905675;29;20050;-85
2022/03/06 11:26:49;;;;;;;5.53;2.60;;;8.90;99.90;;;;;;4890616;29;20074;-83
2022/03/06 11:29:46;;;;;;;5.47;2.90;;;8.90;99.50;;;;;;4939265;29;20143;-84
2022/03/06 11:32:24;;;;;;;6.28;2.72;;;9.00;99.90;;;;;;4938880;29;20035;-84
2022/03/06 11:34:53;;;;;;;4.93;2.70;;;8.90;99.00;;;;;;4938839;29;20040;-85
2022/03/06 11:37:19;;;;;;;6.38;2.83;;;9.00;99.10;;;;;;4905914;29;20039;-84
2022/03/06 11:39:48;;;;;;;5.15;2.80;;;9.00;98.70;;;;;;4938782;29;20050;-84
2022/03/06 11:42:49;;;;;;;5.40;3.03;;;9.10;98.60;;;;;;4921151;29;20059;-87
2022/03/06 11:45:43;;;;;;;4.93;2.33;;;9.20;98.10;;;;;;4939064;29;20062;-85
2022/03/06 11:48:10;;;;;;;5.07;2.80;;;9.40;96.30;;;;;;4904944;29;20386;-83
2022/03/06 11:50:36;;;;;;;9.95;2.78;;;9.40;96.20;;;;;;4904800;29;20044;-85
2022/03/06 11:53:20;;;;;;;5.72;2.58;;;9.20;95.30;;;;;;4921561;29;20047;-84
2022/03/06 11:55:45;;;;;;;6.32;2.63;;;9.10;95.40;;;;;;4904665;29;20052;-82
2022/03/06 11:58:11;;;;;;;5.93;2.80;;;9.20;96.90;;;;;;4921086;29;20047;-85
2022/03/06 12:00:37;;;;;;;6.05;2.58;;;9.40;96.80;;;;;;4905262;29;20063;-83
2022/03/06 12:03:03;;;;;;;5.10;2.80;;;9.60;95.70;;;;;;4921960;29;20055;-84
2022/03/06 12:05:47;;;;;;;8.35;2.65;;;9.70;95.80;;;;;;4921218;29;20490;-83
2022/03/06 12:08:14;;;;;;;7.03;3.00;;;9.80;95.40;;;;;;4921436;29;20075;-85
2022/03/06 12:10:41;;;;;;;4.95;2.47;;;10.10;95.40;;;;;;4920912;29;20091;-86
2022/03/06 12:13:23;;;;;;;4.40;2.40;;;10.20;94.00;;;;;;4920851;29;20565;-83
2022/03/06 12:16:04;;;;;;;5.85;2.65;;;10.30;93.40;;;;;;4937968;29;20039;-84
2022/03/06 12:18:31;;;;;;;4.53;2.28;;;10.40;93.40;;;;;;4937697;29;20114;-86
2022/03/06 12:20:57;;;;;;;5.03;2.60;;;10.60;93.80;;;;;;4920661;29;20047;-84
2022/03/06 12:23:27;;;;;;;6.05;2.72;;;10.90;93.10;;;;;;4920532;29;20070;-84
2022/03/06 12:25:56;;;;;;;6.60;3.25;;;10.80;92.50;;;;;;4904279;29;20122;-84
2022/03/06 12:28:24;;;;;;;5.55;2.65;;;10.60;92.70;;;;;;4936908;29;20105;-84
2022/03/06 12:30:51;;;;;;;7.25;3.03;;;10.30;93.30;;;;;;4919872;29;20047;-83
2022/03/06 12:33:30;;;;;;;6.32;2.53;;;10.00;93.70;;;;;;4936969;29;20112;-84
2022/03/06 12:36:18;;;;;;;4.50;2.70;;;9.70;93.20;;;;;;4919935;29;20103;-83
2022/03/06 12:38:44;;;;;;;4.68;2.55;;;9.40;93.50;;;;;;4904827;29;20385;-85
2022/03/06 12:41:11;;;;;;;6.55;2.83;;;9.50;94.60;;;;;;4937849;29;20047;-85
2022/03/06 12:43:47;;;;;;;6.45;2.70;;;9.60;94.60;;;;;;4919877;29;20071;-85
2022/03/06 12:46:14;;;;;;;7.40;2.55;;;9.80;94.10;;;;;;4937024;29;20043;-84
2022/03/06 12:48:39;;;;;;;5.03;2.70;;;9.80;94.50;;;;;;4919711;29;20095;-85
2022/03/06 12:51:05;;;;;;;4.63;2.63;;;9.80;94.00;;;;;;4919477;29;20036;-82
2022/03/06 12:53:31;;;;;;;5.80;2.70;;;9.70;94.20;;;;;;4903946;29;20040;-84
2022/03/06 12:56:00;;;;;;;5.75;2.80;;;9.60;95.20;;;;;;4919846;29;20047;-85
2022/03/06 12:58:41;;;;;;;5.57;2.90;;;9.40;95.10;;;;;;4919857;29;20493;-84
2022/03/06 13:01:09;;;;;;;6.20;2.72;;;9.20;95.00;;;;;;4941609;29;20051;-85
2022/03/06 13:03:35;;;;;;;5.85;2.92;;;9.10;96.20;;;;;;4925798;29;20054;-86
2022/03/06 13:06:12;;;;;;;6.85;2.83;;;9.10;96.50;;;;;;4943332;29;20075;-85
2022/03/06 13:08:43;;;;;;;6.93;2.90;;;9.50;97.00;;;;;;4926017;29;20059;-85
2022/03/06 13:11:09;;;;;;;5.75;2.63;;;9.80;96.60;;;;;;4910333;29;20038;-84
2022/03/06 13:13:38;;;;;;;5.97;2.80;;;9.90;96.30;;;;;;4926238;29;20126;-86
2022/03/06 13:16:06;;;;;;;7.30;3.00;;;9.80;96.30;;;;;;4926232;29;20486;-85
2022/03/06 13:18:34;;;;;;;4.97;2.75;;;9.60;96.30;;;;;;4925899;29;20055;-87
2022/03/06 13:21:00;;;;;;;6.13;2.58;;;9.40;96.30;;;;;;4943035;29;20035;-84
2022/03/06 13:23:26;;;;;;;5.60;2.72;;;9.30;96.80;;;;;;4926936;29;20110;-84
2022/03/06 13:25:51;;;;;;;8.10;3.15;;;9.40;97.20;;;;;;4910300;29;20554;-85
2022/03/06 13:28:17;;;;;;;7.57;2.83;;;9.50;97.70;;;;;;4942889;29;20050;-83
2022/03/06 13:30:43;;;;;;;7.53;2.63;;;9.40;98.20;;;;;;4925402;29;20402;-83
2022/03/06 13:33:08;;;;;;;5.70;3.05;;;9.30;98.00;;;;;;4925667;29;20486;-84
2022/03/06 13:35:41;;;;;;;6.43;2.70;;;9.20;98.60;;;;;;4943202;29;20390;-86
2022/03/06 13:38:11;;;;;;;4.32;2.55;;;9.00;98.70;;;;;;4926071;29;20051;-82
2022/03/06 13:40:42;;;;;;;8.55;3.70;;;9.00;99.20;;;;;;4926399;29;20047;-85
2022/03/06 13:43:09;;;;;;;6.00;2.90;;;8.90;99.10;;;;;;4943493;29;20044;-85
2022/03/06 13:45:36;;;;;;;4.57;2.30;;;8.90;99.50;;;;;;4926424;29;20043;-84
2022/03/06 13:48:07;;;;;;;5.10;2.60;;;9.10;99.10;;;;;;4943621;29;20048;-84
2022/03/06 13:50:39;;;;;;;4.50;2.60;;;9.30;99.50;;;;;;4926307;29;20071;-83
2022/03/06 13:53:07;;;;;;;11.35;3.53;;;9.60;99.80;;;;;;4926073;29;20047;-84
2022/03/06 13:55:34;;;;;;;7.43;3.40;;;9.60;99.30;;;;;;4925919;29;20095;-85
2022/03/06 13:58:11;;;;;;;8.73;3.00;;;9.50;99.20;;;;;;4925517;29;20110;-87
2022/03/06 14:00:43;;;;;;;6.63;3.13;;;9.30;99.80;;;;;;4909971;29;20051;-85
2022/03/06 14:03:29;;;;;;;4.88;2.80;;;9.10;99.90;;;;;;4926221;29;20377;-83
2022/03/06 14:05:56;;;;;;;8.93;3.30;;;8.90;99.90;;;;;;4943179;29;20071;-85
2022/03/06 14:08:26;;;;;;;6.30;3.05;;;8.90;99.90;;;;;;4925822;29;20044;-84
2022/03/06 14:11:02;;;;;;;6.13;3.30;;;9.10;99.90;;;;;;4925601;29;20043;-85
2022/03/06 14:13:37;;;;;;;10.30;3.22;;;9.30;99.90;;;;;;4922594;29;20067;-85
2022/03/06 14:16:11;;;;;;;4.53;2.60;;;9.30;99.90;;;;;;4922316;29;20054;-83
2022/03/06 14:18:47;;;;;;;5.47;2.33;;;9.10;99.90;;;;;;4922660;29;20429;-85
2022/03/06 14:21:19;;;;;;;;;;;9.20;99.90;;;;;;4944169;29;20062;-85
2022/03/06 14:23:49;;;;;;;7.70;2.83;;;9.40;99.90;;;;;;4937120;29;19910;-85
2022/03/06 14:26:18;;;;;;;6.68;2.75;;;9.40;99.90;;;;;;4941812;29;20059;-83
2022/03/06 14:29:00;;;;;;;6.60;2.42;;;9.40;99.90;;;;;;4928658;29;20027;-83
2022/03/06 14:31:29;;;;;;;5.43;2.30;;;9.30;99.90;;;;;;4939750;29;20095;-84
2022/03/06 14:33:55;;;;;;;7.13;2.58;;;9.20;99.90;;;;;;4908793;29;20040;-85
2022/03/06 14:36:21;;;;;;;6.88;2.50;;;9.40;99.90;;;;;;4923064;29;20051;-84
2022/03/06 14:38:48;;;;;;;4.90;2.30;;;9.60;99.90;;;;;;4922641;29;20059;-86
2022/03/06 14:41:14;;;;;;;4.43;2.17;;;9.70;99.90;;;;;;4906082;29;20044;-85
2022/03/06 14:43:41;;;;;;;4.63;2.25;;;9.80;99.90;;;;;;4922474;29;20055;-86
2022/03/06 14:46:10;;;;;;;5.25;2.33;;;9.80;99.90;;;;;;4922809;29;20179;-83
2022/03/06 14:48:36;;;;;;;6.43;2.40;;;9.50;99.90;;;;;;4939416;29;20158;-82
2022/03/06 14:51:05;;;;;;;5.35;2.28;;;9.30;99.90;;;;;;4938271;29;20076;-85
2022/03/06 14:53:31;;;;;;;7.93;3.60;;;9.20;99.90;;;;;;4922461;29;20258;-88
2022/03/06 14:55:58;;;;;;;8.10;3.83;;;9.20;99.90;;;;;;4939134;29;20050;-85
2022/03/06 14:58:24;;;;;;;10.27;7.70;;;9.20;99.90;;;;;;4921775;29;20079;-85
2022/03/06 15:00:51;;;;;;;8.68;3.45;;;9.50;99.90;;;;;;4922015;29;20048;-85
2022/03/06 15:03:18;;;;;;;8.45;3.22;;;9.60;99.90;;;;;;4905722;29;20056;-85
2022/03/06 15:05:43;;;;;;;6.55;2.20;;;9.90;99.90;;;;;;4921694;29;20073;-85
2022/03/06 15:08:09;;;;;;;5.95;2.80;;;9.90;99.90;;;;;;4921649;29;20049;-86
2022/03/06 15:10:36;;;;;;;8.18;2.95;;;10.00;99.90;;;;;;4921550;29;20110;-86
2022/03/06 15:13:03;;;;;;;6.28;2.90;;;9.80;99.90;;;;;;4940424;29;20462;-84
2022/03/06 15:15:29;;;;;;;8.90;3.85;;;9.50;99.90;;;;;;4923561;29;20482;-85
2022/03/06 15:17:56;;;;;;;7.43;2.67;;;9.30;99.90;;;;;;4922369;29;20051;-83
2022/03/06 15:20:22;;;;;;;4.13;2.70;;;9.30;99.90;;;;;;4922510;29;20047;-85
2022/03/06 15:22:48;;;;;;;11.25;3.30;;;9.10;99.90;;;;;;4921993;29;20104;-84
2022/03/06 15:25:14;;;;;;;5.30;2.65;;;9.10;99.90;;;;;;4922233;29;20127;-83
2022/03/06 15:27:40;;;;;;;7.30;4.88;;;9.00;99.90;;;;;;4921474;29;20122;-86
2022/03/06 15:30:06;;;;;;;5.30;2.75;;;9.10;99.90;;;;;;4922915;29;20036;-83
2022/03/06 15:32:32;;;;;;;10.15;6.20;;;9.40;99.90;;;;;;4922638;29;20394;-84
2022/03/06 15:34:57;;;;;;;21.30;14.93;;;9.90;99.90;;;;;;4939196;29;20040;-84
2022/03/06 15:37:23;;;;;;;12.98;7.13;;;10.20;99.90;;;;;;4922561;29;20047;-84
2022/03/06 15:39:48;;;;;;;14.20;9.00;;;10.50;99.90;;;;;;4922326;29;20071;-85
2022/03/06 15:42:14;;;;;;;5.82;2.60;;;10.50;99.90;;;;;;4921875;29;20046;-85
2022/03/06 15:44:42;;;;;;;3.65;2.47;;;10.40;99.90;;;;;;4922253;29;20051;-84
2022/03/06 15:47:08;;;;;;;13.00;7.40;;;10.20;99.90;;;;;;4921968;29;20123;-85
2022/03/06 15:49:34;;;;;;;6.45;2.70;;;10.10;99.90;;;;;;4905684;29;20051;-84
2022/03/06 15:52:01;;;;;;;5.78;2.33;;;9.90;99.90;;;;;;4921353;29;20450;-84
2022/03/06 15:54:28;;;;;;;5.90;2.67;;;9.60;99.90;;;;;;4921929;29;20661;-83
2022/03/06 15:56:54;;;;;;;7.50;2.60;;;9.40;99.90;;;;;;4939330;29;20040;-85
2022/03/06 15:59:19;;;;;;;7.85;3.15;;;9.20;99.90;;;;;;4921787;29;20474;-86
2022/03/06 16:01:45;;;;;;;6.00;3.20;;;9.00;99.90;;;;;;4921526;29;20063;-86
2022/03/06 16:04:11;;;;;;;5.10;2.88;;;8.70;99.90;;;;;;4921939;29;20044;-84
2022/03/06 16:06:37;;;;;;;10.32;2.90;;;8.70;99.90;;;;;;4938681;29;20047;-84
2022/03/06 16:09:03;;;;;;;5.07;2.30;;;8.50;99.90;;;;;;4921189;29;20040;-84
2022/03/06 16:11:29;;;;;;;6.32;2.85;;;8.30;99.90;;;;;;4920628;29;20046;-85
2022/03/06 16:13:55;;;;;;;5.40;3.10;;;8.10;99.90;;;;;;4920095;29;20482;-85
2022/03/06 16:16:21;;;;;;;5.75;2.67;;;8.10;99.90;;;;;;4920737;29;20040;-84
2022/03/06 16:18:46;;;;;;;5.30;2.30;;;8.10;99.90;;;;;;4921133;29;20387;-87
2022/03/06 16:21:13;;;;;;;5.50;2.47;;;8.00;99.90;;;;;;4920966;29;20046;-86
2022/03/06 16:23:42;;;;;;;5.10;2.80;;;7.90;99.90;;;;;;4920861;29;20083;-86
2022/03/06 16:26:10;;;;;;;6.35;2.55;;;8.00;99.90;;;;;;4904736;29;20051;-84
2022/03/06 16:28:37;;;;;;;6.13;2.63;;;7.90;99.90;;;;;;4904809;29;20178;-85
2022/03/06 16:31:04;;;;;;;7.15;2.58;;;7.80;99.90;;;;;;4937647;29;20051;-84
2022/03/06 16:33:30;;;;;;;4.25;2.35;;;7.80;99.90;;;;;;4920722;29;20107;-84
2022/03/06 16:35:56;;;;;;;5.35;2.38;;;7.70;99.90;;;;;;4920309;29;20044;-84
2022/03/06 16:38:24;;;;;;;6.10;2.63;;;7.60;99.90;;;;;;4919724;29;20395;-83
2022/03/06 16:40:51;;;;;;;7.15;2.80;;;7.50;99.90;;;;;;4905122;29;20043;-85
2022/03/06 16:43:21;;;;;;;5.20;2.60;;;7.40;99.90;;;;;;4920638;29;20043;-86
2022/03/06 16:45:52;;;;;;;7.20;2.72;;;7.40;99.90;;;;;;4904892;29;20043;-85
2022/03/06 16:48:19;;;;;;;5.63;2.60;;;7.30;99.90;;;;;;4937869;29;20070;-85
2022/03/06 16:50:45;;;;;;;5.57;2.85;;;7.30;99.90;;;;;;4920610;29;20047;-84
2022/03/06 16:53:13;;;;;;;7.18;2.70;;;7.20;99.90;;;;;;4920571;29;20478;-84
2022/03/06 16:55:39;;;;;;;8.85;2.80;;;7.20;99.90;;;;;;4904835;29;20087;-84
2022/03/06 16:58:06;;;;;;;4.18;2.58;;;7.10;99.90;;;;;;4937591;29;20431;-84
2022/03/06 17:00:32;;;;;;;5.43;2.88;;;7.00;99.90;;;;;;4920204;29;20162;-86
2022/03/06 17:02:58;;;;;;;9.02;3.45;;;7.00;99.90;;;;;;4920527;29;20050;-85
2022/03/06 17:05:24;;;;;;;7.82;3.30;;;6.90;99.90;;;;;;4937600;29;20040;-83
2022/03/06 17:07:50;;;;;;;5.43;3.13;;;6.80;99.90;;;;;;4919289;29;20509;-86
2022/03/06 17:10:16;;;;;;;7.03;3.25;;;6.80;99.90;;;;;;4920195;29;20095;-86
2022/03/06 17:12:41;;;;;;;6.80;3.10;;;6.70;99.90;;;;;;4938121;29;20043;-84
2022/03/06 17:15:08;;;;;;;6.90;3.00;;;6.60;99.90;;;;;;4919957;29;20047;-83
2022/03/06 17:17:35;;;;;;;7.00;3.15;;;6.60;99.90;;;;;;4919992;29;20039;-84
2022/03/06 17:20:00;;;;;;;8.50;2.80;;;6.60;99.90;;;;;;4919967;29;20112;-86
2022/03/06 17:22:26;;;;;;;7.65;3.50;;;6.50;99.90;;;;;;4919847;29;20095;-85
2022/03/06 17:24:52;;;;;;;7.03;3.50;;;6.50;99.90;;;;;;4919650;29;20079;-85
2022/03/06 17:27:17;;;;;;;7.85;3.83;;;6.50;99.90;;;;;;4904132;29;20051;-84
2022/03/06 17:29:43;;;;;;;7.20;4.32;;;6.50;99.90;;;;;;4903052;29;20054;-83
2022/03/06 17:32:09;;;;;;;9.65;3.60;;;6.50;99.90;;;;;;4919302;29;20067;-87
2022/03/06 17:34:35;;;;;;;7.53;3.70;;;6.40;99.90;;;;;;4919501;29;20032;-86
2022/03/06 17:37:00;;;;;;;9.77;4.05;;;6.40;99.90;;;;;;4919379;29;20095;-86
2022/03/06 17:39:27;;;;;;;7.63;4.03;;;6.40;99.90;;;;;;4919480;29;20545;-86
2022/03/06 17:41:53;;;;;;;10.32;4.38;;;6.40;99.90;;;;;;4903700;29;20048;-83
2022/03/06 17:44:19;;;;;;;7.43;3.88;;;6.30;99.90;;;;;;4936505;29;20070;-83
2022/03/06 17:46:48;;;;;;;10.35;3.97;;;6.30;99.90;;;;;;4920009;29;20047;-85
2022/03/06 17:49:14;;;;;;;8.32;4.05;;;6.30;99.90;;;;;;4922834;29;20134;-83
2022/03/06 17:51:40;;;;;;;10.90;4.55;;;6.30;99.90;;;;;;4923183;29;20043;-84
2022/03/06 17:54:06;;;;;;;7.47;3.90;;;6.30;99.90;;;;;;4922518;29;20031;-84
2022/03/06 17:56:33;;;;;;;6.18;3.40;;;6.20;99.90;;;;;;4922278;29;20040;-83